sensor_id;sensor_type;location;lat;lon;timestamp;P1;durP1;ratioP1;P2;durP2;ratioP2
34573;SDS011;20809;49.594;8.734;2023-04-19T00:02:34;6.82;;;5.38;;
34573;SDS011;20809;49.594;8.734;2023-04-19T00:05:35;7.03;;;5.03;;
34573;SDS011;20809;49.594;8.734;2023-04-19T00:08:40;7.75;;;5.18;;
34573;SDS011;20809;49.594;8.734;2023-04-19T00:11:41;5.85;;;5.05;;
34573;SDS011;20809;49.594;8.734;2023-04-19T00:14:42;6.50;;;5.60;;
34573;SDS011;20809;49.594;8.734;2023-04-19T00:17:43;6.40;;;5.03;;
34573;SDS011;20809;49.594;8.734;2023-04-19T00:20:47;7.03;;;5.43;;
34573;SDS011;20809;49.594;8.734;2023-04-19T00:23:47;6.90;;;4.65;;
34573;SDS011;20809;49.594;8.734;2023-04-19T00:26:48;5.60;;;4.75;;
34573;SDS011;20809;49.594;8.734;2023-04-19T00:29:49;5.45;;;4.72;;
34573;SDS011;20809;49.594;8.734;2023-04-19T00:32:50;7.93;;;5.30;;
34573;SDS011;20809;49.594;8.734;2023-04-19T00:35:52;7.63;;;5.47;;
34573;SDS011;20809;49.594;8.734;2023-04-19T00:38:52;4.95;;;4.30;;
34573;SDS011;20809;49.594;8.734;2023-04-19T00:41:53;5.68;;;4.97;;
34573;SDS011;20809;49.594;8.734;2023-04-19T00:44:56;5.35;;;4.80;;
34573;SDS011;20809;49.594;8.734;2023-04-19T00:47:57;7.88;;;5.13;;
34573;SDS011;20809;49.594;8.734;2023-04-19T00:50:58;6.70;;;5.10;;
34573;SDS011;20809;49.594;8.734;2023-04-19T00:53:59;7.50;;;5.05;;
34573;SDS011;20809;49.594;8.734;2023-04-19T00:59:23;6.60;;;4.93;;
34573;SDS011;20809;49.594;8.734;2023-04-19T01:02:27;7.57;;;5.80;;
34573;SDS011;20809;49.594;8.734;2023-04-19T01:05:30;5.03;;;4.22;;
34573;SDS011;20809;49.594;8.734;2023-04-19T01:08:34;5.68;;;5.07;;
34573;SDS011;20809;49.594;8.734;2023-04-19T01:11:41;6.10;;;5.10;;
34573;SDS011;20809;49.594;8.734;2023-04-19T01:14:47;5.57;;;4.50;;
34573;SDS011;20809;49.594;8.734;2023-04-19T01:17:52;7.68;;;5.05;;
34573;SDS011;20809;49.594;8.734;2023-04-19T01:20:59;5.97;;;5.32;;
34573;SDS011;20809;49.594;8.734;2023-04-19T01:24:07;5.10;;;4.60;;
34573;SDS011;20809;49.594;8.734;2023-04-19T01:27:17;5.75;;;4.78;;
34573;SDS011;20809;49.594;8.734;2023-04-19T01:33:26;7.55;;;4.97;;
34573;SDS011;20809;49.594;8.734;2023-04-19T01:36:30;6.50;;;4.55;;
34573;SDS011;20809;49.594;8.734;2023-04-19T01:39:34;5.90;;;4.65;;
34573;SDS011;20809;49.594;8.734;2023-04-19T01:42:51;4.95;;;4.32;;
34573;SDS011;20809;49.594;8.734;2023-04-19T01:45:57;6.50;;;5.33;;
34573;SDS011;20809;49.594;8.734;2023-04-19T01:49:00;5.13;;;4.25;;
34573;SDS011;20809;49.594;8.734;2023-04-19T01:52:04;6.47;;;5.05;;
34573;SDS011;20809;49.594;8.734;2023-04-19T01:55:08;7.07;;;4.40;;
34573;SDS011;20809;49.594;8.734;2023-04-19T01:58:09;5.03;;;4.22;;
34573;SDS011;20809;49.594;8.734;2023-04-19T02:01:11;4.65;;;4.03;;
34573;SDS011;20809;49.594;8.734;2023-04-19T02:04:13;7.45;;;5.15;;
34573;SDS011;20809;49.594;8.734;2023-04-19T02:07:21;6.13;;;4.47;;
34573;SDS011;20809;49.594;8.734;2023-04-19T02:10:25;5.55;;;4.72;;
34573;SDS011;20809;49.594;8.734;2023-04-19T02:13:29;6.28;;;4.65;;
34573;SDS011;20809;49.594;8.734;2023-04-19T02:16:34;6.13;;;4.60;;
34573;SDS011;20809;49.594;8.734;2023-04-19T02:19:38;5.15;;;4.30;;
34573;SDS011;20809;49.594;8.734;2023-04-19T02:25:44;8.60;;;4.80;;
34573;SDS011;20809;49.594;8.734;2023-04-19T02:28:49;4.38;;;3.97;;
34573;SDS011;20809;49.594;8.734;2023-04-19T02:32:02;6.97;;;4.55;;
34573;SDS011;20809;49.594;8.734;2023-04-19T02:35:06;7.93;;;5.32;;
34573;SDS011;20809;49.594;8.734;2023-04-19T02:38:07;5.65;;;4.70;;
34573;SDS011;20809;49.594;8.734;2023-04-19T02:41:12;5.93;;;4.68;;
34573;SDS011;20809;49.594;8.734;2023-04-19T02:44:16;6.70;;;5.18;;
34573;SDS011;20809;49.594;8.734;2023-04-19T02:47:21;5.97;;;4.90;;
34573;SDS011;20809;49.594;8.734;2023-04-19T02:50:26;7.45;;;5.22;;
34573;SDS011;20809;49.594;8.734;2023-04-19T02:53:31;5.68;;;5.13;;
34573;SDS011;20809;49.594;8.734;2023-04-19T02:56:36;6.63;;;5.18;;
34573;SDS011;20809;49.594;8.734;2023-04-19T02:59:44;6.82;;;5.00;;
34573;SDS011;20809;49.594;8.734;2023-04-19T03:02:56;6.18;;;5.03;;
34573;SDS011;20809;49.594;8.734;2023-04-19T03:06:04;7.57;;;5.13;;
34573;SDS011;20809;49.594;8.734;2023-04-19T03:09:08;6.82;;;5.47;;
34573;SDS011;20809;49.594;8.734;2023-04-19T03:12:12;7.07;;;4.80;;
34573;SDS011;20809;49.594;8.734;2023-04-19T03:15:21;5.38;;;4.60;;
34573;SDS011;20809;49.594;8.734;2023-04-19T03:18:24;7.50;;;5.30;;
34573;SDS011;20809;49.594;8.734;2023-04-19T03:21:26;7.32;;;5.45;;
34573;SDS011;20809;49.594;8.734;2023-04-19T03:24:29;7.35;;;5.03;;
34573;SDS011;20809;49.594;8.734;2023-04-19T03:27:34;6.03;;;4.75;;
34573;SDS011;20809;49.594;8.734;2023-04-19T03:30:44;7.25;;;5.53;;
34573;SDS011;20809;49.594;8.734;2023-04-19T03:33:59;9.52;;;5.30;;
34573;SDS011;20809;49.594;8.734;2023-04-19T03:40:07;5.10;;;4.07;;
34573;SDS011;20809;49.594;8.734;2023-04-19T03:46:09;7.80;;;5.50;;
34573;SDS011;20809;49.594;8.734;2023-04-19T03:49:11;7.15;;;5.43;;
34573;SDS011;20809;49.594;8.734;2023-04-19T03:52:23;7.13;;;6.00;;
34573;SDS011;20809;49.594;8.734;2023-04-19T03:58:31;8.77;;;6.55;;
34573;SDS011;20809;49.594;8.734;2023-04-19T04:01:34;11.90;;;5.75;;
34573;SDS011;20809;49.594;8.734;2023-04-19T04:04:43;7.43;;;5.88;;
34573;SDS011;20809;49.594;8.734;2023-04-19T04:07:47;8.70;;;5.60;;
34573;SDS011;20809;49.594;8.734;2023-04-19T04:10:52;10.25;;;6.65;;
34573;SDS011;20809;49.594;8.734;2023-04-19T04:14:07;8.10;;;5.63;;
34573;SDS011;20809;49.594;8.734;2023-04-19T04:17:37;9.18;;;5.97;;
34573;SDS011;20809;49.594;8.734;2023-04-19T04:20:42;8.77;;;5.70;;
34573;SDS011;20809;49.594;8.734;2023-04-19T04:23:47;9.20;;;6.85;;
34573;SDS011;20809;49.594;8.734;2023-04-19T04:26:55;10.15;;;6.25;;
34573;SDS011;20809;49.594;8.734;2023-04-19T04:30:02;7.72;;;6.38;;
34573;SDS011;20809;49.594;8.734;2023-04-19T04:33:13;7.10;;;5.55;;
34573;SDS011;20809;49.594;8.734;2023-04-19T04:36:17;6.95;;;6.13;;
34573;SDS011;20809;49.594;8.734;2023-04-19T04:39:22;9.27;;;6.07;;
34573;SDS011;20809;49.594;8.734;2023-04-19T04:42:26;8.95;;;6.03;;
34573;SDS011;20809;49.594;8.734;2023-04-19T04:45:32;8.57;;;5.95;;
34573;SDS011;20809;49.594;8.734;2023-04-19T04:48:39;7.38;;;6.65;;
34573;SDS011;20809;49.594;8.734;2023-04-19T04:51:46;7.20;;;5.90;;
34573;SDS011;20809;49.594;8.734;2023-04-19T04:54:53;6.72;;;5.72;;
34573;SDS011;20809;49.594;8.734;2023-04-19T04:58:09;7.45;;;5.95;;
34573;SDS011;20809;49.594;8.734;2023-04-19T05:01:24;7.75;;;5.40;;
34573;SDS011;20809;49.594;8.734;2023-04-19T05:04:48;6.72;;;5.88;;
34573;SDS011;20809;49.594;8.734;2023-04-19T05:07:54;6.20;;;5.30;;
34573;SDS011;20809;49.594;8.734;2023-04-19T05:11:01;7.65;;;5.80;;
34573;SDS011;20809;49.594;8.734;2023-04-19T05:14:10;7.05;;;5.65;;
34573;SDS011;20809;49.594;8.734;2023-04-19T05:17:32;8.27;;;5.70;;
34573;SDS011;20809;49.594;8.734;2023-04-19T05:20:43;9.82;;;5.75;;
34573;SDS011;20809;49.594;8.734;2023-04-19T05:23:53;8.07;;;6.70;;
34573;SDS011;20809;49.594;8.734;2023-04-19T05:26:58;8.30;;;5.43;;
34573;SDS011;20809;49.594;8.734;2023-04-19T05:30:04;7.80;;;6.13;;
34573;SDS011;20809;49.594;8.734;2023-04-19T05:33:08;8.13;;;6.05;;
34573;SDS011;20809;49.594;8.734;2023-04-19T05:36:13;7.55;;;6.25;;
34573;SDS011;20809;49.594;8.734;2023-04-19T05:39:18;8.90;;;5.38;;
34573;SDS011;20809;49.594;8.734;2023-04-19T05:42:26;8.02;;;6.05;;
34573;SDS011;20809;49.594;8.734;2023-04-19T05:45:32;6.43;;;5.30;;
34573;SDS011;20809;49.594;8.734;2023-04-19T05:48:38;5.82;;;4.93;;
34573;SDS011;20809;49.594;8.734;2023-04-19T05:52:02;7.00;;;5.43;;
34573;SDS011;20809;49.594;8.734;2023-04-19T05:55:08;7.15;;;5.10;;
34573;SDS011;20809;49.594;8.734;2023-04-19T05:58:13;5.43;;;4.80;;
34573;SDS011;20809;49.594;8.734;2023-04-19T06:01:18;9.50;;;5.65;;
34573;SDS011;20809;49.594;8.734;2023-04-19T06:04:25;6.30;;;4.82;;
34573;SDS011;20809;49.594;8.734;2023-04-19T06:07:30;6.93;;;5.45;;
34573;SDS011;20809;49.594;8.734;2023-04-19T06:10:35;6.05;;;5.40;;
34573;SDS011;20809;49.594;8.734;2023-04-19T06:13:49;5.55;;;5.00;;
34573;SDS011;20809;49.594;8.734;2023-04-19T06:16:58;5.72;;;5.20;;
34573;SDS011;20809;49.594;8.734;2023-04-19T06:20:03;6.22;;;4.50;;
34573;SDS011;20809;49.594;8.734;2023-04-19T06:23:10;5.57;;;4.45;;
34573;SDS011;20809;49.594;8.734;2023-04-19T06:26:15;6.47;;;5.53;;
34573;SDS011;20809;49.594;8.734;2023-04-19T06:29:21;5.18;;;4.65;;
34573;SDS011;20809;49.594;8.734;2023-04-19T06:32:30;6.28;;;5.60;;
34573;SDS011;20809;49.594;8.734;2023-04-19T06:35:34;7.53;;;5.50;;
34573;SDS011;20809;49.594;8.734;2023-04-19T06:38:41;7.35;;;5.97;;
34573;SDS011;20809;49.594;8.734;2023-04-19T06:41:50;7.60;;;6.13;;
34573;SDS011;20809;49.594;8.734;2023-04-19T06:44:56;9.40;;;5.40;;
34573;SDS011;20809;49.594;8.734;2023-04-19T06:48:03;7.43;;;5.95;;
34573;SDS011;20809;49.594;8.734;2023-04-19T06:51:08;7.78;;;5.90;;
34573;SDS011;20809;49.594;8.734;2023-04-19T06:54:14;8.25;;;6.18;;
34573;SDS011;20809;49.594;8.734;2023-04-19T06:57:20;8.77;;;6.43;;
34573;SDS011;20809;49.594;8.734;2023-04-19T07:00:34;10.68;;;6.68;;
34573;SDS011;20809;49.594;8.734;2023-04-19T07:03:44;10.77;;;7.85;;
34573;SDS011;20809;49.594;8.734;2023-04-19T07:06:59;8.53;;;5.77;;
34573;SDS011;20809;49.594;8.734;2023-04-19T07:10:07;8.95;;;6.05;;
34573;SDS011;20809;49.594;8.734;2023-04-19T07:13:13;7.50;;;5.72;;
34573;SDS011;20809;49.594;8.734;2023-04-19T07:16:21;10.00;;;6.70;;
34573;SDS011;20809;49.594;8.734;2023-04-19T07:19:26;8.75;;;6.38;;
34573;SDS011;20809;49.594;8.734;2023-04-19T07:22:32;6.35;;;5.75;;
34573;SDS011;20809;49.594;8.734;2023-04-19T07:25:44;10.63;;;7.43;;
34573;SDS011;20809;49.594;8.734;2023-04-19T07:28:56;10.20;;;6.53;;
34573;SDS011;20809;49.594;8.734;2023-04-19T07:32:03;8.55;;;6.80;;
34573;SDS011;20809;49.594;8.734;2023-04-19T07:35:09;12.45;;;7.20;;
34573;SDS011;20809;49.594;8.734;2023-04-19T07:38:15;8.25;;;6.22;;
34573;SDS011;20809;49.594;8.734;2023-04-19T07:41:21;10.82;;;6.82;;
34573;SDS011;20809;49.594;8.734;2023-04-19T07:44:27;12.57;;;6.90;;
34573;SDS011;20809;49.594;8.734;2023-04-19T07:47:31;8.30;;;6.57;;
34573;SDS011;20809;49.594;8.734;2023-04-19T07:50:36;7.63;;;6.07;;
34573;SDS011;20809;49.594;8.734;2023-04-19T07:54:00;11.50;;;7.00;;
34573;SDS011;20809;49.594;8.734;2023-04-19T07:57:07;9.43;;;7.40;;
34573;SDS011;20809;49.594;8.734;2023-04-19T08:00:16;11.20;;;6.97;;
34573;SDS011;20809;49.594;8.734;2023-04-19T08:03:25;9.57;;;6.97;;
34573;SDS011;20809;49.594;8.734;2023-04-19T08:06:34;8.80;;;6.47;;
34573;SDS011;20809;49.594;8.734;2023-04-19T08:09:58;8.30;;;6.60;;
34573;SDS011;20809;49.594;8.734;2023-04-19T08:13:04;10.50;;;6.55;;
34573;SDS011;20809;49.594;8.734;2023-04-19T08:16:12;7.40;;;6.00;;
34573;SDS011;20809;49.594;8.734;2023-04-19T08:19:20;8.13;;;6.47;;
34573;SDS011;20809;49.594;8.734;2023-04-19T08:22:29;7.13;;;6.18;;
34573;SDS011;20809;49.594;8.734;2023-04-19T08:25:43;8.15;;;6.30;;
34573;SDS011;20809;49.594;8.734;2023-04-19T08:28:59;9.85;;;6.22;;
34573;SDS011;20809;49.594;8.734;2023-04-19T08:32:04;9.85;;;6.00;;
34573;SDS011;20809;49.594;8.734;2023-04-19T08:35:13;8.18;;;6.97;;
34573;SDS011;20809;49.594;8.734;2023-04-19T08:38:20;8.75;;;6.72;;
34573;SDS011;20809;49.594;8.734;2023-04-19T08:41:23;10.68;;;7.60;;
34573;SDS011;20809;49.594;8.734;2023-04-19T08:44:34;8.20;;;6.25;;
34573;SDS011;20809;49.594;8.734;2023-04-19T08:47:45;7.63;;;6.68;;
34573;SDS011;20809;49.594;8.734;2023-04-19T08:51:02;10.52;;;7.35;;
34573;SDS011;20809;49.594;8.734;2023-04-19T08:54:06;7.80;;;6.32;;
34573;SDS011;20809;49.594;8.734;2023-04-19T08:57:12;12.13;;;7.00;;
34573;SDS011;20809;49.594;8.734;2023-04-19T09:00:24;7.78;;;6.45;;
34573;SDS011;20809;49.594;8.734;2023-04-19T09:03:38;7.40;;;6.40;;
34573;SDS011;20809;49.594;8.734;2023-04-19T09:07:06;7.03;;;6.30;;
34573;SDS011;20809;49.594;8.734;2023-04-19T09:10:37;7.75;;;6.70;;
34573;SDS011;20809;49.594;8.734;2023-04-19T09:14:09;6.53;;;5.70;;
34573;SDS011;20809;49.594;8.734;2023-04-19T09:17:29;7.38;;;6.05;;
34573;SDS011;20809;49.594;8.734;2023-04-19T09:20:43;6.35;;;5.65;;
34573;SDS011;20809;49.594;8.734;2023-04-19T09:23:59;7.38;;;6.60;;
34573;SDS011;20809;49.594;8.734;2023-04-19T09:27:06;13.75;;;7.47;;
34573;SDS011;20809;49.594;8.734;2023-04-19T09:30:13;9.32;;;7.40;;
34573;SDS011;20809;49.594;8.734;2023-04-19T09:33:31;9.13;;;7.40;;
34573;SDS011;20809;49.594;8.734;2023-04-19T09:36:42;9.30;;;7.55;;
34573;SDS011;20809;49.594;8.734;2023-04-19T09:40:21;11.77;;;8.68;;
34573;SDS011;20809;49.594;8.734;2023-04-19T09:43:28;11.25;;;7.95;;
34573;SDS011;20809;49.594;8.734;2023-04-19T09:46:36;10.27;;;8.05;;
34573;SDS011;20809;49.594;8.734;2023-04-19T09:50:08;9.55;;;7.38;;
34573;SDS011;20809;49.594;8.734;2023-04-19T09:53:15;12.38;;;7.88;;
34573;SDS011;20809;49.594;8.734;2023-04-19T09:56:21;8.13;;;7.25;;
34573;SDS011;20809;49.594;8.734;2023-04-19T09:59:31;11.70;;;7.10;;
34573;SDS011;20809;49.594;8.734;2023-04-19T10:03:01;8.43;;;6.93;;
34573;SDS011;20809;49.594;8.734;2023-04-19T10:06:08;9.63;;;7.45;;
34573;SDS011;20809;49.594;8.734;2023-04-19T10:09:20;8.95;;;6.43;;
34573;SDS011;20809;49.594;8.734;2023-04-19T10:12:28;7.20;;;5.97;;
34573;SDS011;20809;49.594;8.734;2023-04-19T10:15:46;9.27;;;6.13;;
34573;SDS011;20809;49.594;8.734;2023-04-19T10:19:23;6.28;;;5.18;;
34573;SDS011;20809;49.594;8.734;2023-04-19T10:22:35;9.50;;;6.53;;
34573;SDS011;20809;49.594;8.734;2023-04-19T10:25:45;7.63;;;6.05;;
34573;SDS011;20809;49.594;8.734;2023-04-19T10:29:14;5.93;;;4.85;;
34573;SDS011;20809;49.594;8.734;2023-04-19T10:32:41;8.40;;;5.30;;
34573;SDS011;20809;49.594;8.734;2023-04-19T10:35:55;9.15;;;4.95;;
34573;SDS011;20809;49.594;8.734;2023-04-19T10:39:04;5.80;;;4.32;;
34573;SDS011;20809;49.594;8.734;2023-04-19T10:46:35;4.35;;;3.53;;
34573;SDS011;20809;49.594;8.734;2023-04-19T10:49:46;4.07;;;3.67;;
34573;SDS011;20809;49.594;8.734;2023-04-19T11:00:23;4.78;;;3.72;;
34573;SDS011;20809;49.594;8.734;2023-04-19T11:10:06;4.97;;;3.47;;
34573;SDS011;20809;49.594;8.734;2023-04-19T11:13:16;4.30;;;3.90;;
34573;SDS011;20809;49.594;8.734;2023-04-19T11:16:20;4.53;;;3.65;;
34573;SDS011;20809;49.594;8.734;2023-04-19T11:19:27;4.32;;;3.92;;
34573;SDS011;20809;49.594;8.734;2023-04-19T11:22:44;5.93;;;3.97;;
34573;SDS011;20809;49.594;8.734;2023-04-19T11:25:55;6.20;;;3.45;;
34573;SDS011;20809;49.594;8.734;2023-04-19T11:29:03;4.82;;;3.47;;
34573;SDS011;20809;49.594;8.734;2023-04-19T11:32:10;4.82;;;3.28;;
34573;SDS011;20809;49.594;8.734;2023-04-19T11:35:17;4.75;;;3.17;;
34573;SDS011;20809;49.594;8.734;2023-04-19T11:38:35;3.53;;;2.78;;
34573;SDS011;20809;49.594;8.734;2023-04-19T11:41:42;4.22;;;2.80;;
34573;SDS011;20809;49.594;8.734;2023-04-19T11:44:58;4.43;;;2.70;;
34573;SDS011;20809;49.594;8.734;2023-04-19T11:48:04;3.67;;;2.90;;
34573;SDS011;20809;49.594;8.734;2023-04-19T11:51:18;2.63;;;2.42;;
34573;SDS011;20809;49.594;8.734;2023-04-19T11:54:29;3.03;;;2.80;;
34573;SDS011;20809;49.594;8.734;2023-04-19T11:57:33;4.43;;;3.72;;
34573;SDS011;20809;49.594;8.734;2023-04-19T12:00:45;2.97;;;2.78;;
34573;SDS011;20809;49.594;8.734;2023-04-19T12:03:52;2.95;;;2.55;;
34573;SDS011;20809;49.594;8.734;2023-04-19T12:07:02;3.40;;;2.90;;
34573;SDS011;20809;49.594;8.734;2023-04-19T12:10:10;5.90;;;2.92;;
34573;SDS011;20809;49.594;8.734;2023-04-19T12:13:16;5.80;;;2.83;;
34573;SDS011;20809;49.594;8.734;2023-04-19T12:16:29;3.55;;;3.00;;
34573;SDS011;20809;49.594;8.734;2023-04-19T12:19:41;3.22;;;2.92;;
34573;SDS011;20809;49.594;8.734;2023-04-19T12:22:44;4.35;;;2.50;;
34573;SDS011;20809;49.594;8.734;2023-04-19T12:26:06;4.50;;;3.55;;
34573;SDS011;20809;49.594;8.734;2023-04-19T12:29:59;6.70;;;2.85;;
34573;SDS011;20809;49.594;8.734;2023-04-19T12:33:11;3.20;;;2.88;;
34573;SDS011;20809;49.594;8.734;2023-04-19T12:36:37;4.13;;;3.60;;
34573;SDS011;20809;49.594;8.734;2023-04-19T12:40:01;6.50;;;3.65;;
34573;SDS011;20809;49.594;8.734;2023-04-19T12:43:48;5.70;;;3.17;;
34573;SDS011;20809;49.594;8.734;2023-04-19T12:47:05;3.97;;;3.28;;
34573;SDS011;20809;49.594;8.734;2023-04-19T12:50:16;4.50;;;3.35;;
34573;SDS011;20809;49.594;8.734;2023-04-19T12:53:22;3.20;;;2.85;;
34573;SDS011;20809;49.594;8.734;2023-04-19T12:56:23;4.38;;;3.42;;
34573;SDS011;20809;49.594;8.734;2023-04-19T13:02:26;3.90;;;3.37;;
34573;SDS011;20809;49.594;8.734;2023-04-19T13:05:35;4.25;;;3.25;;
34573;SDS011;20809;49.594;8.734;2023-04-19T13:08:39;3.92;;;2.95;;
34573;SDS011;20809;49.594;8.734;2023-04-19T13:11:43;4.75;;;3.10;;
34573;SDS011;20809;49.594;8.734;2023-04-19T13:14:53;3.97;;;3.53;;
34573;SDS011;20809;49.594;8.734;2023-04-19T13:17:54;4.30;;;2.13;;
34573;SDS011;20809;49.594;8.734;2023-04-19T13:20:55;3.15;;;2.60;;
34573;SDS011;20809;49.594;8.734;2023-04-19T13:23:59;6.90;;;2.45;;
34573;SDS011;20809;49.594;8.734;2023-04-19T13:27:02;3.67;;;2.40;;
34573;SDS011;20809;49.594;8.734;2023-04-19T13:30:03;4.43;;;1.83;;
34573;SDS011;20809;49.594;8.734;2023-04-19T13:33:07;2.60;;;2.03;;
34573;SDS011;20809;49.594;8.734;2023-04-19T13:36:08;2.58;;;2.10;;
34573;SDS011;20809;49.594;8.734;2023-04-19T13:39:09;3.10;;;2.28;;
34573;SDS011;20809;49.594;8.734;2023-04-19T13:42:10;2.47;;;1.92;;
34573;SDS011;20809;49.594;8.734;2023-04-19T13:45:13;3.20;;;2.03;;
34573;SDS011;20809;49.594;8.734;2023-04-19T13:48:14;2.30;;;1.85;;
34573;SDS011;20809;49.594;8.734;2023-04-19T13:51:14;4.55;;;1.70;;
34573;SDS011;20809;49.594;8.734;2023-04-19T13:54:15;2.13;;;1.77;;
34573;SDS011;20809;49.594;8.734;2023-04-19T14:00:17;4.10;;;1.77;;
34573;SDS011;20809;49.594;8.734;2023-04-19T14:03:20;2.58;;;1.77;;
34573;SDS011;20809;49.594;8.734;2023-04-19T14:06:21;2.05;;;1.48;;
34573;SDS011;20809;49.594;8.734;2023-04-19T14:09:25;2.83;;;2.25;;
34573;SDS011;20809;49.594;8.734;2023-04-19T14:12:26;4.15;;;1.63;;
34573;SDS011;20809;49.594;8.734;2023-04-19T14:15:26;4.82;;;1.77;;
34573;SDS011;20809;49.594;8.734;2023-04-19T14:18:27;3.83;;;1.60;;
34573;SDS011;20809;49.594;8.734;2023-04-19T14:21:29;1.45;;;1.30;;
34573;SDS011;20809;49.594;8.734;2023-04-19T14:24:30;2.88;;;1.48;;
34573;SDS011;20809;49.594;8.734;2023-04-19T14:27:31;1.88;;;1.17;;
34573;SDS011;20809;49.594;8.734;2023-04-19T14:30:32;7.03;;;1.40;;
34573;SDS011;20809;49.594;8.734;2023-04-19T14:33:33;5.70;;;1.52;;
34573;SDS011;20809;49.594;8.734;2023-04-19T14:36:34;3.17;;;1.48;;
34573;SDS011;20809;49.594;8.734;2023-04-19T14:39:35;3.65;;;1.17;;
34573;SDS011;20809;49.594;8.734;2023-04-19T14:42:36;2.63;;;1.30;;
34573;SDS011;20809;49.594;8.734;2023-04-19T14:45:36;5.13;;;1.20;;
34573;SDS011;20809;49.594;8.734;2023-04-19T14:48:37;4.05;;;1.20;;
34573;SDS011;20809;49.594;8.734;2023-04-19T14:51:38;2.65;;;1.00;;
34573;SDS011;20809;49.594;8.734;2023-04-19T14:54:39;5.18;;;2.25;;
34573;SDS011;20809;49.594;8.734;2023-04-19T14:57:43;4.63;;;0.88;;
34573;SDS011;20809;49.594;8.734;2023-04-19T15:00:44;2.65;;;1.13;;
34573;SDS011;20809;49.594;8.734;2023-04-19T15:03:45;3.40;;;1.02;;
34573;SDS011;20809;49.594;8.734;2023-04-19T15:06:46;2.05;;;0.82;;
34573;SDS011;20809;49.594;8.734;2023-04-19T15:09:49;2.75;;;1.20;;
34573;SDS011;20809;49.594;8.734;2023-04-19T15:12:56;5.85;;;1.02;;
34573;SDS011;20809;49.594;8.734;2023-04-19T15:15:57;4.57;;;1.00;;
34573;SDS011;20809;49.594;8.734;2023-04-19T15:18:58;5.90;;;1.00;;
34573;SDS011;20809;49.594;8.734;2023-04-19T15:21:59;4.05;;;0.90;;
34573;SDS011;20809;49.594;8.734;2023-04-19T15:25:00;2.30;;;1.33;;
34573;SDS011;20809;49.594;8.734;2023-04-19T15:28:01;2.25;;;1.13;;
34573;SDS011;20809;49.594;8.734;2023-04-19T15:31:03;3.20;;;1.20;;
34573;SDS011;20809;49.594;8.734;2023-04-19T15:34:05;1.27;;;0.75;;
34573;SDS011;20809;49.594;8.734;2023-04-19T15:37:06;1.95;;;1.10;;
34573;SDS011;20809;49.594;8.734;2023-04-19T15:40:08;1.25;;;0.95;;
34573;SDS011;20809;49.594;8.734;2023-04-19T15:43:11;1.70;;;1.00;;
34573;SDS011;20809;49.594;8.734;2023-04-19T15:46:12;1.23;;;0.82;;
34573;SDS011;20809;49.594;8.734;2023-04-19T15:49:17;2.92;;;1.45;;
34573;SDS011;20809;49.594;8.734;2023-04-19T15:52:21;2.63;;;1.10;;
34573;SDS011;20809;49.594;8.734;2023-04-19T15:55:22;4.93;;;0.85;;
34573;SDS011;20809;49.594;8.734;2023-04-19T15:58:23;4.47;;;1.27;;
34573;SDS011;20809;49.594;8.734;2023-04-19T16:01:24;2.25;;;1.38;;
34573;SDS011;20809;49.594;8.734;2023-04-19T16:04:25;2.88;;;0.70;;
34573;SDS011;20809;49.594;8.734;2023-04-19T16:07:26;4.63;;;1.40;;
34573;SDS011;20809;49.594;8.734;2023-04-19T16:10:27;4.43;;;1.02;;
34573;SDS011;20809;49.594;8.734;2023-04-19T16:13:28;4.43;;;0.95;;
34573;SDS011;20809;49.594;8.734;2023-04-19T16:16:32;1.48;;;0.70;;
34573;SDS011;20809;49.594;8.734;2023-04-19T16:19:33;0.88;;;0.65;;
34573;SDS011;20809;49.594;8.734;2023-04-19T16:22:34;2.25;;;1.10;;
34573;SDS011;20809;49.594;8.734;2023-04-19T16:28:36;1.98;;;0.90;;
34573;SDS011;20809;49.594;8.734;2023-04-19T16:31:43;1.08;;;0.70;;
34573;SDS011;20809;49.594;8.734;2023-04-19T16:34:49;3.50;;;0.90;;
34573;SDS011;20809;49.594;8.734;2023-04-19T16:37:50;2.38;;;0.90;;
34573;SDS011;20809;49.594;8.734;2023-04-19T16:40:52;6.75;;;1.00;;
34573;SDS011;20809;49.594;8.734;2023-04-19T16:43:53;2.25;;;1.20;;
34573;SDS011;20809;49.594;8.734;2023-04-19T16:46:54;1.02;;;0.90;;
34573;SDS011;20809;49.594;8.734;2023-04-19T16:49:56;2.40;;;1.23;;
34573;SDS011;20809;49.594;8.734;2023-04-19T16:52:57;1.65;;;0.80;;
34573;SDS011;20809;49.594;8.734;2023-04-19T16:55:58;1.40;;;0.70;;
34573;SDS011;20809;49.594;8.734;2023-04-19T16:59:02;2.17;;;1.08;;
34573;SDS011;20809;49.594;8.734;2023-04-19T17:02:03;1.55;;;0.90;;
34573;SDS011;20809;49.594;8.734;2023-04-19T17:05:06;1.25;;;0.98;;
34573;SDS011;20809;49.594;8.734;2023-04-19T17:08:07;3.78;;;1.25;;
34573;SDS011;20809;49.594;8.734;2023-04-19T17:11:10;1.42;;;1.00;;
34573;SDS011;20809;49.594;8.734;2023-04-19T17:14:10;2.22;;;0.90;;
34573;SDS011;20809;49.594;8.734;2023-04-19T17:17:11;1.17;;;0.80;;
34573;SDS011;20809;49.594;8.734;2023-04-19T17:20:15;1.05;;;0.82;;
34573;SDS011;20809;49.594;8.734;2023-04-19T17:23:19;1.02;;;0.93;;
34573;SDS011;20809;49.594;8.734;2023-04-19T17:26:20;2.13;;;0.93;;
34573;SDS011;20809;49.594;8.734;2023-04-19T17:29:21;3.58;;;1.33;;
34573;SDS011;20809;49.594;8.734;2023-04-19T17:32:22;1.75;;;1.27;;
34573;SDS011;20809;49.594;8.734;2023-04-19T17:35:22;1.92;;;1.13;;
34573;SDS011;20809;49.594;8.734;2023-04-19T17:38:25;2.42;;;1.35;;
34573;SDS011;20809;49.594;8.734;2023-04-19T17:41:26;2.55;;;1.30;;
34573;SDS011;20809;49.594;8.734;2023-04-19T17:44:27;4.25;;;1.45;;
34573;SDS011;20809;49.594;8.734;2023-04-19T17:47:27;1.42;;;1.00;;
34573;SDS011;20809;49.594;8.734;2023-04-19T17:54:08;2.55;;;1.73;;
34573;SDS011;20809;49.594;8.734;2023-04-19T17:57:09;1.47;;;1.00;;
34573;SDS011;20809;49.594;8.734;2023-04-19T18:00:10;8.27;;;2.42;;
34573;SDS011;20809;49.594;8.734;2023-04-19T18:03:11;3.53;;;1.63;;
34573;SDS011;20809;49.594;8.734;2023-04-19T18:06:12;1.77;;;1.42;;
34573;SDS011;20809;49.594;8.734;2023-04-19T18:09:15;2.85;;;1.40;;
34573;SDS011;20809;49.594;8.734;2023-04-19T18:12:17;3.00;;;1.30;;
34573;SDS011;20809;49.594;8.734;2023-04-19T18:15:18;1.80;;;1.20;;
34573;SDS011;20809;49.594;8.734;2023-04-19T18:18:18;2.00;;;1.23;;
34573;SDS011;20809;49.594;8.734;2023-04-19T18:21:19;4.57;;;2.05;;
34573;SDS011;20809;49.594;8.734;2023-04-19T18:24:20;1.90;;;1.40;;
34573;SDS011;20809;49.594;8.734;2023-04-19T18:27:21;2.58;;;1.52;;
34573;SDS011;20809;49.594;8.734;2023-04-19T18:30:21;2.33;;;1.50;;
34573;SDS011;20809;49.594;8.734;2023-04-19T18:33:22;1.70;;;1.53;;
34573;SDS011;20809;49.594;8.734;2023-04-19T18:36:22;5.78;;;1.58;;
34573;SDS011;20809;49.594;8.734;2023-04-19T18:39:23;5.63;;;1.90;;
34573;SDS011;20809;49.594;8.734;2023-04-19T18:45:25;2.00;;;1.17;;
34573;SDS011;20809;49.594;8.734;2023-04-19T18:48:27;3.30;;;1.48;;
34573;SDS011;20809;49.594;8.734;2023-04-19T18:51:28;3.80;;;1.63;;
34573;SDS011;20809;49.594;8.734;2023-04-19T18:54:29;2.33;;;1.30;;
34573;SDS011;20809;49.594;8.734;2023-04-19T18:57:30;2.47;;;1.57;;
34573;SDS011;20809;49.594;8.734;2023-04-19T19:00:32;2.58;;;1.98;;
34573;SDS011;20809;49.594;8.734;2023-04-19T19:03:32;3.25;;;1.98;;
34573;SDS011;20809;49.594;8.734;2023-04-19T19:06:33;2.42;;;1.67;;
34573;SDS011;20809;49.594;8.734;2023-04-19T19:09:33;3.70;;;1.45;;
34573;SDS011;20809;49.594;8.734;2023-04-19T19:12:34;2.47;;;1.20;;
34573;SDS011;20809;49.594;8.734;2023-04-19T19:15:35;2.23;;;1.37;;
34573;SDS011;20809;49.594;8.734;2023-04-19T19:18:36;2.45;;;1.30;;
34573;SDS011;20809;49.594;8.734;2023-04-19T19:21:36;1.80;;;1.57;;
34573;SDS011;20809;49.594;8.734;2023-04-19T19:24:37;6.13;;;2.67;;
34573;SDS011;20809;49.594;8.734;2023-04-19T19:27:38;2.97;;;1.60;;
34573;SDS011;20809;49.594;8.734;2023-04-19T19:30:38;2.25;;;1.85;;
34573;SDS011;20809;49.594;8.734;2023-04-19T19:33:41;4.43;;;1.75;;
34573;SDS011;20809;49.594;8.734;2023-04-19T19:36:42;4.03;;;1.97;;